sensor_id;sensor_type;location;lat;lon;timestamp;P1;durP1;ratioP1;P2;durP2;ratioP2
45686;SDS011;31399;51.176;7.776;2022-08-04T00:01:34;2.83;;;1.48;;
45686;SDS011;31399;51.176;7.776;2022-08-04T00:04:11;2.30;;;1.10;;
45686;SDS011;31399;51.176;7.776;2022-08-04T00:09:25;2.55;;;1.15;;
45686;SDS011;31399;51.176;7.776;2022-08-04T00:11:56;5.35;;;1.50;;
45686;SDS011;31399;51.176;7.776;2022-08-04T00:14:23;2.75;;;1.25;;
45686;SDS011;31399;51.176;7.776;2022-08-04T00:16:51;1.63;;;1.20;;
45686;SDS011;31399;51.176;7.776;2022-08-04T00:19:29;3.58;;;1.10;;
45686;SDS011;31399;51.176;7.776;2022-08-04T00:22:04;4.65;;;1.10;;
45686;SDS011;31399;51.176;7.776;2022-08-04T00:24:34;2.35;;;1.00;;
45686;SDS011;31399;51.176;7.776;2022-08-04T00:27:02;3.75;;;1.20;;
45686;SDS011;31399;51.176;7.776;2022-08-04T00:29:29;4.53;;;1.60;;
45686;SDS011;31399;51.176;7.776;2022-08-04T00:31:56;3.88;;;1.10;;
45686;SDS011;31399;51.176;7.776;2022-08-04T00:34:23;2.88;;;1.02;;
45686;SDS011;31399;51.176;7.776;2022-08-04T00:36:52;6.00;;;1.52;;
45686;SDS011;31399;51.176;7.776;2022-08-04T00:39:20;1.73;;;0.80;;
45686;SDS011;31399;51.176;7.776;2022-08-04T00:48:00;4.43;;;1.40;;
45686;SDS011;31399;51.176;7.776;2022-08-04T00:50:38;5.25;;;1.30;;
45686;SDS011;31399;51.176;7.776;2022-08-04T00:56:36;2.53;;;1.42;;
45686;SDS011;31399;51.176;7.776;2022-08-04T01:04:57;4.18;;;1.40;;
45686;SDS011;31399;51.176;7.776;2022-08-04T01:12:48;3.55;;;1.50;;
45686;SDS011;31399;51.176;7.776;2022-08-04T01:18:34;5.18;;;1.30;;
45686;SDS011;31399;51.176;7.776;2022-08-04T01:29:23;4.38;;;1.30;;
45686;SDS011;31399;51.176;7.776;2022-08-04T01:32:13;3.90;;;1.10;;
45686;SDS011;31399;51.176;7.776;2022-08-04T01:34:52;3.60;;;1.63;;
45686;SDS011;31399;51.176;7.776;2022-08-04T01:37:28;4.55;;;1.83;;
45686;SDS011;31399;51.176;7.776;2022-08-04T01:40:04;3.53;;;1.38;;
45686;SDS011;31399;51.176;7.776;2022-08-04T01:42:32;7.18;;;1.75;;
45686;SDS011;31399;51.176;7.776;2022-08-04T01:45:10;7.28;;;1.70;;
45686;SDS011;31399;51.176;7.776;2022-08-04T01:47:39;4.90;;;1.45;;
45686;SDS011;31399;51.176;7.776;2022-08-04T01:50:09;2.97;;;1.45;;
45686;SDS011;31399;51.176;7.776;2022-08-04T01:52:38;6.47;;;1.73;;
45686;SDS011;31399;51.176;7.776;2022-08-04T01:55:07;3.50;;;1.35;;
45686;SDS011;31399;51.176;7.776;2022-08-04T01:57:45;2.80;;;1.20;;
45686;SDS011;31399;51.176;7.776;2022-08-04T02:00:14;2.33;;;1.27;;
45686;SDS011;31399;51.176;7.776;2022-08-04T02:02:48;2.50;;;1.23;;
45686;SDS011;31399;51.176;7.776;2022-08-04T02:05:17;5.97;;;1.45;;
45686;SDS011;31399;51.176;7.776;2022-08-04T02:13:32;6.20;;;1.50;;
45686;SDS011;31399;51.176;7.776;2022-08-04T02:16:15;2.70;;;1.20;;
45686;SDS011;31399;51.176;7.776;2022-08-04T02:21:40;2.58;;;1.60;;
45686;SDS011;31399;51.176;7.776;2022-08-04T02:24:10;3.97;;;1.55;;
45686;SDS011;31399;51.176;7.776;2022-08-04T02:26:41;8.00;;;1.80;;
45686;SDS011;31399;51.176;7.776;2022-08-04T02:32:02;2.03;;;1.55;;
45686;SDS011;31399;51.176;7.776;2022-08-04T02:34:31;4.78;;;1.67;;
45686;SDS011;31399;51.176;7.776;2022-08-04T02:37:04;3.33;;;2.10;;
45686;SDS011;31399;51.176;7.776;2022-08-04T02:39:33;5.40;;;1.73;;
45686;SDS011;31399;51.176;7.776;2022-08-04T02:42:13;5.35;;;1.50;;
45686;SDS011;31399;51.176;7.776;2022-08-04T02:44:40;4.88;;;1.65;;
45686;SDS011;31399;51.176;7.776;2022-08-04T02:47:08;3.10;;;1.50;;
45686;SDS011;31399;51.176;7.776;2022-08-04T02:49:36;3.58;;;1.27;;
45686;SDS011;31399;51.176;7.776;2022-08-04T02:52:06;7.05;;;1.35;;
45686;SDS011;31399;51.176;7.776;2022-08-04T02:54:40;2.28;;;1.60;;
45686;SDS011;31399;51.176;7.776;2022-08-04T02:57:08;4.57;;;1.40;;
45686;SDS011;31399;51.176;7.776;2022-08-04T03:14:20;3.03;;;1.73;;
45686;SDS011;31399;51.176;7.776;2022-08-04T03:28:46;3.03;;;1.75;;
45686;SDS011;31399;51.176;7.776;2022-08-04T04:01:20;7.18;;;2.00;;
45686;SDS011;31399;51.176;7.776;2022-08-04T04:18:41;2.67;;;1.85;;
45686;SDS011;31399;51.176;7.776;2022-08-04T04:29:00;2.97;;;2.03;;
45686;SDS011;31399;51.176;7.776;2022-08-04T04:34:38;4.43;;;1.70;;
45686;SDS011;31399;51.176;7.776;2022-08-04T04:37:19;3.10;;;1.87;;
45686;SDS011;31399;51.176;7.776;2022-08-04T04:40:02;4.95;;;1.85;;
45686;SDS011;31399;51.176;7.776;2022-08-04T04:45:32;3.97;;;1.95;;
45686;SDS011;31399;51.176;7.776;2022-08-04T04:56:46;4.03;;;1.85;;
45686;SDS011;31399;51.176;7.776;2022-08-04T04:59:17;2.92;;;1.90;;
45686;SDS011;31399;51.176;7.776;2022-08-04T05:13:58;4.18;;;2.03;;
45686;SDS011;31399;51.176;7.776;2022-08-04T05:16:50;4.10;;;2.00;;
45686;SDS011;31399;51.176;7.776;2022-08-04T05:22:14;2.97;;;1.80;;
45686;SDS011;31399;51.176;7.776;2022-08-04T05:24:46;6.70;;;2.30;;
45686;SDS011;31399;51.176;7.776;2022-08-04T05:27:18;6.22;;;2.30;;
45686;SDS011;31399;51.176;7.776;2022-08-04T05:29:51;2.90;;;1.40;;
45686;SDS011;31399;51.176;7.776;2022-08-04T05:32:19;4.38;;;1.75;;
45686;SDS011;31399;51.176;7.776;2022-08-04T05:34:51;1.90;;;1.35;;
45686;SDS011;31399;51.176;7.776;2022-08-04T05:37:23;3.90;;;2.33;;
45686;SDS011;31399;51.176;7.776;2022-08-04T05:39:56;2.08;;;1.70;;
45686;SDS011;31399;51.176;7.776;2022-08-04T05:42:24;2.42;;;1.40;;
45686;SDS011;31399;51.176;7.776;2022-08-04T05:44:51;2.47;;;1.20;;
45686;SDS011;31399;51.176;7.776;2022-08-04T05:47:19;2.83;;;1.38;;
45686;SDS011;31399;51.176;7.776;2022-08-04T05:49:47;2.47;;;1.23;;
45686;SDS011;31399;51.176;7.776;2022-08-04T05:52:27;1.90;;;1.13;;
45686;SDS011;31399;51.176;7.776;2022-08-04T05:54:55;3.08;;;1.63;;
45686;SDS011;31399;51.176;7.776;2022-08-04T05:57:24;4.30;;;1.50;;
45686;SDS011;31399;51.176;7.776;2022-08-04T05:59:51;2.53;;;1.60;;
45686;SDS011;31399;51.176;7.776;2022-08-04T06:02:18;4.22;;;1.65;;
45686;SDS011;31399;51.176;7.776;2022-08-04T06:04:47;2.17;;;1.50;;
45686;SDS011;31399;51.176;7.776;2022-08-04T06:07:15;3.38;;;1.60;;
45686;SDS011;31399;51.176;7.776;2022-08-04T06:09:42;4.82;;;1.30;;
45686;SDS011;31399;51.176;7.776;2022-08-04T06:12:14;2.13;;;0.95;;
45686;SDS011;31399;51.176;7.776;2022-08-04T06:14:53;1.50;;;1.02;;
45686;SDS011;31399;51.176;7.776;2022-08-04T06:17:27;2.05;;;1.17;;
45686;SDS011;31399;51.176;7.776;2022-08-04T06:20:20;2.25;;;1.02;;
45686;SDS011;31399;51.176;7.776;2022-08-04T06:22:51;6.55;;;1.45;;
45686;SDS011;31399;51.176;7.776;2022-08-04T06:25:21;5.00;;;1.27;;
45686;SDS011;31399;51.176;7.776;2022-08-04T06:27:49;4.97;;;1.00;;
45686;SDS011;31399;51.176;7.776;2022-08-04T06:30:17;1.50;;;1.20;;
45686;SDS011;31399;51.176;7.776;2022-08-04T06:32:45;1.88;;;1.30;;
45686;SDS011;31399;51.176;7.776;2022-08-04T06:35:14;1.58;;;1.17;;
45686;SDS011;31399;51.176;7.776;2022-08-04T06:37:43;1.42;;;1.20;;
45686;SDS011;31399;51.176;7.776;2022-08-04T06:40:15;2.28;;;1.30;;
45686;SDS011;31399;51.176;7.776;2022-08-04T06:42:58;2.25;;;1.15;;
45686;SDS011;31399;51.176;7.776;2022-08-04T06:45:29;1.35;;;1.00;;
45686;SDS011;31399;51.176;7.776;2022-08-04T06:47:56;1.48;;;1.10;;
45686;SDS011;31399;51.176;7.776;2022-08-04T06:50:23;3.83;;;1.35;;
45686;SDS011;31399;51.176;7.776;2022-08-04T06:53:10;4.45;;;1.45;;
45686;SDS011;31399;51.176;7.776;2022-08-04T06:55:37;2.65;;;1.48;;
45686;SDS011;31399;51.176;7.776;2022-08-04T06:58:03;2.65;;;1.30;;
45686;SDS011;31399;51.176;7.776;2022-08-04T07:00:31;1.42;;;1.15;;
45686;SDS011;31399;51.176;7.776;2022-08-04T07:02:59;1.70;;;1.20;;
45686;SDS011;31399;51.176;7.776;2022-08-04T07:05:26;5.03;;;1.10;;
45686;SDS011;31399;51.176;7.776;2022-08-04T07:07:53;3.15;;;1.25;;
45686;SDS011;31399;51.176;7.776;2022-08-04T07:10:23;5.00;;;1.50;;
45686;SDS011;31399;51.176;7.776;2022-08-04T07:12:50;1.85;;;1.33;;
45686;SDS011;31399;51.176;7.776;2022-08-04T07:15:19;5.43;;;1.50;;
45686;SDS011;31399;51.176;7.776;2022-08-04T07:17:45;5.18;;;1.30;;
45686;SDS011;31399;51.176;7.776;2022-08-04T07:20:17;1.48;;;1.30;;
45686;SDS011;31399;51.176;7.776;2022-08-04T07:23:01;1.88;;;1.40;;
45686;SDS011;31399;51.176;7.776;2022-08-04T07:25:34;7.30;;;1.38;;
45686;SDS011;31399;51.176;7.776;2022-08-04T07:28:22;2.60;;;1.10;;
45686;SDS011;31399;51.176;7.776;2022-08-04T07:30:49;1.85;;;1.20;;
45686;SDS011;31399;51.176;7.776;2022-08-04T07:33:16;2.95;;;1.35;;
45686;SDS011;31399;51.176;7.776;2022-08-04T07:35:44;3.42;;;1.50;;
45686;SDS011;31399;51.176;7.776;2022-08-04T07:38:31;2.88;;;1.05;;
45686;SDS011;31399;51.176;7.776;2022-08-04T07:41:00;4.22;;;1.08;;
45686;SDS011;31399;51.176;7.776;2022-08-04T07:43:29;3.10;;;1.70;;
45686;SDS011;31399;51.176;7.776;2022-08-04T07:45:56;2.47;;;1.23;;
45686;SDS011;31399;51.176;7.776;2022-08-04T07:48:23;3.83;;;1.40;;
45686;SDS011;31399;51.176;7.776;2022-08-04T07:50:49;1.42;;;1.13;;
45686;SDS011;31399;51.176;7.776;2022-08-04T07:53:16;2.97;;;1.30;;
45686;SDS011;31399;51.176;7.776;2022-08-04T07:56:03;5.25;;;1.20;;
45686;SDS011;31399;51.176;7.776;2022-08-04T07:58:30;3.28;;;1.20;;
45686;SDS011;31399;51.176;7.776;2022-08-04T08:00:57;4.35;;;1.13;;
45686;SDS011;31399;51.176;7.776;2022-08-04T08:03:24;1.58;;;0.93;;
45686;SDS011;31399;51.176;7.776;2022-08-04T08:05:51;2.28;;;1.50;;
45686;SDS011;31399;51.176;7.776;2022-08-04T08:08:38;3.28;;;1.10;;
45686;SDS011;31399;51.176;7.776;2022-08-04T08:11:08;4.68;;;1.40;;
45686;SDS011;31399;51.176;7.776;2022-08-04T08:16:02;1.63;;;1.33;;
45686;SDS011;31399;51.176;7.776;2022-08-04T08:18:30;3.50;;;1.15;;
45686;SDS011;31399;51.176;7.776;2022-08-04T08:20:57;3.67;;;1.48;;
45686;SDS011;31399;51.176;7.776;2022-08-04T08:23:24;4.68;;;1.08;;
45686;SDS011;31399;51.176;7.776;2022-08-04T08:25:51;3.85;;;1.30;;
45686;SDS011;31399;51.176;7.776;2022-08-04T08:28:18;1.35;;;0.98;;
45686;SDS011;31399;51.176;7.776;2022-08-04T08:30:44;1.10;;;1.00;;
45686;SDS011;31399;51.176;7.776;2022-08-04T08:33:18;1.52;;;0.90;;
45686;SDS011;31399;51.176;7.776;2022-08-04T08:44:14;1.25;;;1.00;;
45686;SDS011;31399;51.176;7.776;2022-08-04T08:55:31;3.13;;;1.00;;
45686;SDS011;31399;51.176;7.776;2022-08-04T09:00:41;1.58;;;1.10;;
45686;SDS011;31399;51.176;7.776;2022-08-04T09:11:41;2.15;;;1.55;;
45686;SDS011;31399;51.176;7.776;2022-08-04T09:14:16;2.17;;;0.65;;
45686;SDS011;31399;51.176;7.776;2022-08-04T09:16:46;1.67;;;0.85;;
45686;SDS011;31399;51.176;7.776;2022-08-04T09:19:26;4.47;;;1.00;;
45686;SDS011;31399;51.176;7.776;2022-08-04T09:22:12;2.60;;;1.10;;
45686;SDS011;31399;51.176;7.776;2022-08-04T09:24:47;1.35;;;0.90;;
45686;SDS011;31399;51.176;7.776;2022-08-04T09:27:19;2.42;;;0.95;;
45686;SDS011;31399;51.176;7.776;2022-08-04T09:40:47;4.03;;;0.77;;
45686;SDS011;31399;51.176;7.776;2022-08-04T09:43:26;2.40;;;1.20;;
45686;SDS011;31399;51.176;7.776;2022-08-04T09:49:16;3.92;;;0.75;;
45686;SDS011;31399;51.176;7.776;2022-08-04T10:02:43;2.65;;;0.90;;
45686;SDS011;31399;51.176;7.776;2022-08-04T10:05:15;3.80;;;0.82;;
45686;SDS011;31399;51.176;7.776;2022-08-04T10:10:50;1.67;;;1.25;;
45686;SDS011;31399;51.176;7.776;2022-08-04T10:18:39;1.08;;;0.70;;
45686;SDS011;31399;51.176;7.776;2022-08-04T10:23:47;4.50;;;0.98;;
45686;SDS011;31399;51.176;7.776;2022-08-04T10:26:33;1.77;;;0.80;;
45686;SDS011;31399;51.176;7.776;2022-08-04T10:29:13;1.38;;;0.80;;
45686;SDS011;31399;51.176;7.776;2022-08-04T10:31:47;1.17;;;0.75;;
45686;SDS011;31399;51.176;7.776;2022-08-04T10:34:40;1.05;;;0.90;;
45686;SDS011;31399;51.176;7.776;2022-08-04T10:37:14;0.75;;;0.75;;
45686;SDS011;31399;51.176;7.776;2022-08-04T10:39:51;1.83;;;0.73;;
45686;SDS011;31399;51.176;7.776;2022-08-04T10:42:39;1.75;;;0.68;;
45686;SDS011;31399;51.176;7.776;2022-08-04T10:45:17;0.80;;;0.80;;
45686;SDS011;31399;51.176;7.776;2022-08-04T10:47:53;0.90;;;0.70;;
45686;SDS011;31399;51.176;7.776;2022-08-04T10:50:26;1.20;;;0.90;;
45686;SDS011;31399;51.176;7.776;2022-08-04T10:52:56;1.33;;;0.77;;
45686;SDS011;31399;51.176;7.776;2022-08-04T10:55:31;5.03;;;1.00;;
45686;SDS011;31399;51.176;7.776;2022-08-04T10:58:21;6.18;;;0.90;;
45686;SDS011;31399;51.176;7.776;2022-08-04T11:01:14;3.80;;;0.90;;
45686;SDS011;31399;51.176;7.776;2022-08-04T11:04:07;1.30;;;0.60;;
45686;SDS011;31399;51.176;7.776;2022-08-04T11:06:37;3.03;;;0.70;;
45686;SDS011;31399;51.176;7.776;2022-08-04T11:09:05;1.05;;;0.52;;
45686;SDS011;31399;51.176;7.776;2022-08-04T11:11:48;1.90;;;0.70;;
45686;SDS011;31399;51.176;7.776;2022-08-04T11:14:29;1.90;;;0.50;;
45686;SDS011;31399;51.176;7.776;2022-08-04T11:17:05;0.68;;;0.60;;
45686;SDS011;31399;51.176;7.776;2022-08-04T11:25:34;5.13;;;0.70;;
45686;SDS011;31399;51.176;7.776;2022-08-04T11:27:53;2.90;;;1.17;;
45686;SDS011;31399;51.176;7.776;2022-08-04T11:30:49;1.73;;;0.60;;
45686;SDS011;31399;51.176;7.776;2022-08-04T11:39:06;3.33;;;0.80;;
45686;SDS011;31399;51.176;7.776;2022-08-04T11:41:38;2.55;;;0.90;;
45686;SDS011;31399;51.176;7.776;2022-08-04T11:44:09;1.90;;;0.60;;
45686;SDS011;31399;51.176;7.776;2022-08-04T11:46:39;1.83;;;0.70;;
45686;SDS011;31399;51.176;7.776;2022-08-04T11:49:10;1.48;;;0.73;;
45686;SDS011;31399;51.176;7.776;2022-08-04T11:51:42;3.30;;;0.77;;
45686;SDS011;31399;51.176;7.776;2022-08-04T11:54:10;2.70;;;0.75;;
45686;SDS011;31399;51.176;7.776;2022-08-04T11:56:37;5.10;;;0.70;;
45686;SDS011;31399;51.176;7.776;2022-08-04T11:59:05;2.15;;;0.80;;
45686;SDS011;31399;51.176;7.776;2022-08-04T12:01:34;2.67;;;0.95;;
45686;SDS011;31399;51.176;7.776;2022-08-04T12:04:57;3.53;;;0.85;;
45686;SDS011;31399;51.176;7.776;2022-08-04T12:07:18;2.47;;;0.57;;
45686;SDS011;31399;51.176;7.776;2022-08-04T12:15:51;2.25;;;0.80;;
45686;SDS011;31399;51.176;7.776;2022-08-04T12:19:07;2.95;;;0.80;;
45686;SDS011;31399;51.176;7.776;2022-08-04T12:21:48;2.88;;;0.70;;
45686;SDS011;31399;51.176;7.776;2022-08-04T12:24:21;0.63;;;0.50;;
45686;SDS011;31399;51.176;7.776;2022-08-04T12:26:52;2.00;;;0.93;;
45686;SDS011;31399;51.176;7.776;2022-08-04T12:29:21;0.38;;;0.38;;
45686;SDS011;31399;51.176;7.776;2022-08-04T12:34:57;1.05;;;0.60;;
45686;SDS011;31399;51.176;7.776;2022-08-04T12:43:19;5.57;;;0.98;;
45686;SDS011;31399;51.176;7.776;2022-08-04T12:45:52;0.95;;;0.60;;
45686;SDS011;31399;51.176;7.776;2022-08-04T12:48:20;0.98;;;0.80;;
45686;SDS011;31399;51.176;7.776;2022-08-04T12:50:52;3.00;;;0.52;;
45686;SDS011;31399;51.176;7.776;2022-08-04T12:53:20;1.27;;;0.73;;
45686;SDS011;31399;51.176;7.776;2022-08-04T12:55:57;2.05;;;0.70;;
45686;SDS011;31399;51.176;7.776;2022-08-04T13:01:12;1.77;;;0.70;;
45686;SDS011;31399;51.176;7.776;2022-08-04T13:04:14;0.90;;;0.70;;
45686;SDS011;31399;51.176;7.776;2022-08-04T13:06:43;1.65;;;0.65;;
45686;SDS011;31399;51.176;7.776;2022-08-04T13:09:13;4.82;;;0.82;;
45686;SDS011;31399;51.176;7.776;2022-08-04T13:11:48;0.50;;;0.50;;
45686;SDS011;31399;51.176;7.776;2022-08-04T13:14:16;3.50;;;0.98;;
45686;SDS011;31399;51.176;7.776;2022-08-04T13:16:59;1.08;;;0.57;;
45686;SDS011;31399;51.176;7.776;2022-08-04T13:19:27;0.98;;;0.60;;
45686;SDS011;31399;51.176;7.776;2022-08-04T13:21:54;1.40;;;0.55;;
45686;SDS011;31399;51.176;7.776;2022-08-04T13:24:31;2.83;;;0.47;;
45686;SDS011;31399;51.176;7.776;2022-08-04T13:27:19;1.10;;;0.70;;
45686;SDS011;31399;51.176;7.776;2022-08-04T13:29:46;1.77;;;0.70;;
45686;SDS011;31399;51.176;7.776;2022-08-04T13:32:26;0.87;;;0.60;;
45686;SDS011;31399;51.176;7.776;2022-08-04T13:34:54;3.42;;;0.70;;
45686;SDS011;31399;51.176;7.776;2022-08-04T13:37:25;4.95;;;1.15;;
45686;SDS011;31399;51.176;7.776;2022-08-04T13:39:56;2.15;;;0.73;;
45686;SDS011;31399;51.176;7.776;2022-08-04T13:42:24;5.82;;;0.80;;
45686;SDS011;31399;51.176;7.776;2022-08-04T13:44:53;4.00;;;0.75;;
45686;SDS011;31399;51.176;7.776;2022-08-04T13:47:24;7.47;;;1.15;;
45686;SDS011;31399;51.176;7.776;2022-08-04T13:52:38;1.65;;;0.80;;
45686;SDS011;31399;51.176;7.776;2022-08-04T13:55:06;3.55;;;1.02;;
45686;SDS011;31399;51.176;7.776;2022-08-04T13:57:35;6.53;;;1.67;;
45686;SDS011;31399;51.176;7.776;2022-08-04T14:00:10;2.35;;;0.90;;
45686;SDS011;31399;51.176;7.776;2022-08-04T14:02:45;3.33;;;1.02;;
45686;SDS011;31399;51.176;7.776;2022-08-04T14:05:18;2.55;;;0.90;;
45686;SDS011;31399;51.176;7.776;2022-08-04T14:07:54;1.65;;;1.45;;
45686;SDS011;31399;51.176;7.776;2022-08-04T14:10:37;2.75;;;0.90;;
45686;SDS011;31399;51.176;7.776;2022-08-04T14:13:05;2.78;;;0.98;;
45686;SDS011;31399;51.176;7.776;2022-08-04T14:15:39;4.05;;;1.38;;
45686;SDS011;31399;51.176;7.776;2022-08-04T14:18:28;4.97;;;1.13;;
45686;SDS011;31399;51.176;7.776;2022-08-04T14:23:25;4.05;;;1.38;;
45686;SDS011;31399;51.176;7.776;2022-08-04T14:25:58;1.45;;;1.00;;
45686;SDS011;31399;51.176;7.776;2022-08-04T14:28:28;2.25;;;1.20;;
45686;SDS011;31399;51.176;7.776;2022-08-04T14:31:17;3.47;;;1.10;;
45686;SDS011;31399;51.176;7.776;2022-08-04T14:33:46;7.40;;;1.65;;
45686;SDS011;31399;51.176;7.776;2022-08-04T14:36:39;6.38;;;1.73;;
45686;SDS011;31399;51.176;7.776;2022-08-04T14:39:42;5.18;;;1.50;;
45686;SDS011;31399;51.176;7.776;2022-08-04T14:42:42;4.05;;;1.45;;
45686;SDS011;31399;51.176;7.776;2022-08-04T14:47:57;5.22;;;1.15;;
45686;SDS011;31399;51.176;7.776;2022-08-04T14:50:37;4.05;;;1.30;;
45686;SDS011;31399;51.176;7.776;2022-08-04T14:53:15;4.70;;;1.65;;
45686;SDS011;31399;51.176;7.776;2022-08-04T14:55:45;8.90;;;1.65;;
45686;SDS011;31399;51.176;7.776;2022-08-04T14:58:16;3.92;;;1.52;;
45686;SDS011;31399;51.176;7.776;2022-08-04T15:01:04;1.90;;;1.48;;
45686;SDS011;31399;51.176;7.776;2022-08-04T15:03:40;5.72;;;1.40;;
45686;SDS011;31399;51.176;7.776;2022-08-04T15:06:24;1.90;;;1.65;;
45686;SDS011;31399;51.176;7.776;2022-08-04T15:08:53;4.22;;;1.40;;
45686;SDS011;31399;51.176;7.776;2022-08-04T15:11:22;3.67;;;1.23;;
45686;SDS011;31399;51.176;7.776;2022-08-04T15:13:53;5.35;;;1.48;;
45686;SDS011;31399;51.176;7.776;2022-08-04T15:16:21;5.28;;;1.45;;
45686;SDS011;31399;51.176;7.776;2022-08-04T15:18:49;6.35;;;1.38;;
45686;SDS011;31399;51.176;7.776;2022-08-04T15:21:17;4.75;;;1.55;;
45686;SDS011;31399;51.176;7.776;2022-08-04T15:23:46;4.65;;;1.40;;
45686;SDS011;31399;51.176;7.776;2022-08-04T15:26:56;2.15;;;1.15;;
45686;SDS011;31399;51.176;7.776;2022-08-04T15:29:11;5.43;;;1.50;;
45686;SDS011;31399;51.176;7.776;2022-08-04T15:31:42;7.78;;;1.70;;
45686;SDS011;31399;51.176;7.776;2022-08-04T15:39:59;4.80;;;1.45;;
45686;SDS011;31399;51.176;7.776;2022-08-04T15:45:26;8.30;;;1.20;;
45686;SDS011;31399;51.176;7.776;2022-08-04T15:53:23;5.95;;;1.50;;
45686;SDS011;31399;51.176;7.776;2022-08-04T15:58:52;8.95;;;1.65;;
45686;SDS011;31399;51.176;7.776;2022-08-04T16:01:20;2.30;;;1.33;;
45686;SDS011;31399;51.176;7.776;2022-08-04T16:03:48;2.92;;;1.23;;
45686;SDS011;31399;51.176;7.776;2022-08-04T16:18:54;2.35;;;1.33;;
45686;SDS011;31399;51.176;7.776;2022-08-04T16:21:49;5.00;;;1.50;;
45686;SDS011;31399;51.176;7.776;2022-08-04T16:24:20;2.63;;;1.08;;
45686;SDS011;31399;51.176;7.776;2022-08-04T16:26:48;6.15;;;1.50;;
45686;SDS011;31399;51.176;7.776;2022-08-04T16:34:31;3.97;;;1.55;;
45686;SDS011;31399;51.176;7.776;2022-08-04T16:37:16;2.63;;;1.50;;
45686;SDS011;31399;51.176;7.776;2022-08-04T16:39:44;4.57;;;1.65;;
45686;SDS011;31399;51.176;7.776;2022-08-04T16:45:02;3.50;;;1.77;;
45686;SDS011;31399;51.176;7.776;2022-08-04T16:50:13;5.50;;;1.50;;
45686;SDS011;31399;51.176;7.776;2022-08-04T16:52:44;5.22;;;1.35;;
45686;SDS011;31399;51.176;7.776;2022-08-04T16:55:15;3.60;;;1.60;;
45686;SDS011;31399;51.176;7.776;2022-08-04T16:57:50;3.85;;;2.28;;
45686;SDS011;31399;51.176;7.776;2022-08-04T17:00:34;4.82;;;2.00;;
45686;SDS011;31399;51.176;7.776;2022-08-04T17:03:05;6.85;;;1.58;;
45686;SDS011;31399;51.176;7.776;2022-08-04T17:05:34;6.57;;;1.92;;
45686;SDS011;31399;51.176;7.776;2022-08-04T17:08:05;4.95;;;1.40;;
45686;SDS011;31399;51.176;7.776;2022-08-04T17:10:52;4.90;;;1.90;;
45686;SDS011;31399;51.176;7.776;2022-08-04T17:13:26;3.03;;;1.73;;
45686;SDS011;31399;51.176;7.776;2022-08-04T17:16:16;6.28;;;1.75;;
45686;SDS011;31399;51.176;7.776;2022-08-04T17:18:47;4.85;;;1.27;;
45686;SDS011;31399;51.176;7.776;2022-08-04T17:21:16;6.43;;;1.75;;
45686;SDS011;31399;51.176;7.776;2022-08-04T17:26:34;7.60;;;1.92;;
45686;SDS011;31399;51.176;7.776;2022-08-04T17:29:06;10.10;;;2.55;;
45686;SDS011;31399;51.176;7.776;2022-08-04T17:31:35;4.05;;;1.80;;
45686;SDS011;31399;51.176;7.776;2022-08-04T17:34:13;5.57;;;2.22;;
45686;SDS011;31399;51.176;7.776;2022-08-04T17:36:44;4.93;;;2.40;;
45686;SDS011;31399;51.176;7.776;2022-08-04T17:39:13;9.90;;;2.40;;
45686;SDS011;31399;51.176;7.776;2022-08-04T17:41:43;5.40;;;1.63;;
45686;SDS011;31399;51.176;7.776;2022-08-04T17:44:14;5.60;;;2.40;;
45686;SDS011;31399;51.176;7.776;2022-08-04T17:46:42;4.55;;;2.45;;
45686;SDS011;31399;51.176;7.776;2022-08-04T17:51:49;3.47;;;2.20;;
45686;SDS011;31399;51.176;7.776;2022-08-04T17:54:32;9.90;;;2.03;;
45686;SDS011;31399;51.176;7.776;2022-08-04T17:57:14;6.32;;;2.45;;
45686;SDS011;31399;51.176;7.776;2022-08-04T18:00:02;3.53;;;1.55;;
45686;SDS011;31399;51.176;7.776;2022-08-04T18:02:29;7.85;;;2.03;;
45686;SDS011;31399;51.176;7.776;2022-08-04T18:05:00;5.50;;;2.50;;
45686;SDS011;31399;51.176;7.776;2022-08-04T18:07:40;7.68;;;2.45;;
45686;SDS011;31399;51.176;7.776;2022-08-04T18:10:40;4.20;;;2.13;;
45686;SDS011;31399;51.176;7.776;2022-08-04T18:13:24;4.05;;;2.35;;
45686;SDS011;31399;51.176;7.776;2022-08-04T18:15:59;5.35;;;2.38;;
45686;SDS011;31399;51.176;7.776;2022-08-04T18:18:29;3.58;;;1.88;;
45686;SDS011;31399;51.176;7.776;2022-08-04T18:20:55;5.07;;;2.28;;
45686;SDS011;31399;51.176;7.776;2022-08-04T18:23:28;3.38;;;1.92;;
45686;SDS011;31399;51.176;7.776;2022-08-04T18:25:57;5.32;;;2.20;;
45686;SDS011;31399;51.176;7.776;2022-08-04T18:28:27;6.00;;;2.58;;
45686;SDS011;31399;51.176;7.776;2022-08-04T18:30:58;3.05;;;2.08;;
45686;SDS011;31399;51.176;7.776;2022-08-04T18:33:25;4.18;;;2.58;;
45686;SDS011;31399;51.176;7.776;2022-08-04T18:36:06;6.57;;;2.88;;
45686;SDS011;31399;51.176;7.776;2022-08-04T18:38:57;4.05;;;2.28;;
45686;SDS011;31399;51.176;7.776;2022-08-04T18:41:40;4.15;;;2.42;;
45686;SDS011;31399;51.176;7.776;2022-08-04T18:44:27;6.60;;;3.20;;
45686;SDS011;31399;51.176;7.776;2022-08-04T18:46:56;2.58;;;1.95;;
45686;SDS011;31399;51.176;7.776;2022-08-04T18:49:43;5.25;;;2.42;;
45686;SDS011;31399;51.176;7.776;2022-08-04T18:52:29;5.07;;;2.75;;
45686;SDS011;31399;51.176;7.776;2022-08-04T18:54:56;4.35;;;2.55;;
45686;SDS011;31399;51.176;7.776;2022-08-04T18:57:27;4.97;;;2.42;;
45686;SDS011;31399;51.176;7.776;2022-08-04T19:00:14;8.63;;;2.60;;
45686;SDS011;31399;51.176;7.776;2022-08-04T19:02:45;3.73;;;2.00;;
45686;SDS011;31399;51.176;7.776;2022-08-04T19:05:12;6.57;;;2.20;;
45686;SDS011;31399;51.176;7.776;2022-08-04T19:07:42;5.87;;;2.10;;
45686;SDS011;31399;51.176;7.776;2022-08-04T19:10:28;4.07;;;1.75;;
45686;SDS011;31399;51.176;7.776;2022-08-04T19:12:54;4.20;;;1.83;;
45686;SDS011;31399;51.176;7.776;2022-08-04T19:15:21;2.95;;;2.20;;
45686;SDS011;31399;51.176;7.776;2022-08-04T19:18:00;6.07;;;2.72;;
45686;SDS011;31399;51.176;7.776;2022-08-04T19:20:32;3.35;;;2.20;;
45686;SDS011;31399;51.176;7.776;2022-08-04T19:23:02;7.43;;;2.60;;
45686;SDS011;31399;51.176;7.776;2022-08-04T19:25:49;5.57;;;2.70;;
45686;SDS011;31399;51.176;7.776;2022-08-04T19:31:07;4.83;;;2.33;;
45686;SDS011;31399;51.176;7.776;2022-08-04T19:33:34;6.28;;;2.25;;
45686;SDS011;31399;51.176;7.776;2022-08-04T19:36:22;2.85;;;2.20;;
45686;SDS011;31399;51.176;7.776;2022-08-04T19:38:54;7.78;;;2.42;;
45686;SDS011;31399;51.176;7.776;2022-08-04T19:41:26;5.78;;;2.30;;
45686;SDS011;31399;51.176;7.776;2022-08-04T19:43:56;4.00;;;2.80;;
45686;SDS011;31399;51.176;7.776;2022-08-04T19:46:23;4.78;;;2.38;;
45686;SDS011;31399;51.176;7.776;2022-08-04T19:48:53;5.35;;;2.90;;
45686;SDS011;31399;51.176;7.776;2022-08-04T19:51:26;4.72;;;3.10;;
45686;SDS011;31399;51.176;7.776;2022-08-04T19:53:53;5.30;;;2.72;;
45686;SDS011;31399;51.176;7.776;2022-08-04T19:56:33;4.70;;;2.63;;
45686;SDS011;31399;51.176;7.776;2022-08-04T19:59:06;5.45;;;2.83;;
45686;SDS011;31399;51.176;7.776;2022-08-04T20:01:33;4.25;;;2.50;;
45686;SDS011;31399;51.176;7.776;2022-08-04T20:04:10;5.10;;;2.63;;
45686;SDS011;31399;51.176;7.776;2022-08-04T20:06:37;6.60;;;3.13;;
45686;SDS011;31399;51.176;7.776;2022-08-04T20:09:04;4.88;;;2.90;;
45686;SDS011;31399;51.176;7.776;2022-08-04T20:11:51;3.30;;;2.70;;
45686;SDS011;31399;51.176;7.776;2022-08-04T20:14:18;6.25;;;2.88;;
45686;SDS011;31399;51.176;7.776;2022-08-04T20:16:57;4.03;;;2.90;;
45686;SDS011;31399;51.176;7.776;2022-08-04T20:19:24;5.43;;;2.90;;
45686;SDS011;31399;51.176;7.776;2022-08-04T20:21:52;6.78;;;3.00;;
45686;SDS011;31399;51.176;7.776;2022-08-04T20:24:22;5.55;;;2.92;;
45686;SDS011;31399;51.176;7.776;2022-08-04T20:27:07;8.77;;;3.33;;
45686;SDS011;31399;51.176;7.776;2022-08-04T20:29:41;7.18;;;3.15;;
45686;SDS011;31399;51.176;7.776;2022-08-04T20:32:24;6.25;;;3.10;;
45686;SDS011;31399;51.176;7.776;2022-08-04T20:34:52;7.85;;;3.20;;